Terminal Aerodrome Forecast
Issued by NWS

Home | Current Version | Previous Version | Text Only | Print | Product List | Glossary On
Versions: 1 2 3 4 5 6 7 8 9 10 11 12 13 14 15 16 17 18 19 20 21 22 23 24 25 26 27 28
000
FTUS43 KICT 202111 AAC
TAFCNU
TAF AMD
KCNU 202111Z 2021/2118 19006KT P6SM SCT250
     FM202300 18008KT P6SM SCT250
     FM210800 18008KT 4SM BR OVC025
     FM211000 18008KT 3SM BR OVC015
      TEMPO 2110/2114 1SM BR OVC008
     FM211400 17008KT 4SM BR OVC008=

USA.gov is the U.S. government's official web portal to all federal, state and local government web resources and services.